M I D A S
Marine Information and Data Acquisition System
Tripno 1636 of the Zeeleeuw from 2009-01-29 07:42:15 to 2009-01-29 15:35:18
Back to CruiseResearch ActivitiesStationsMapUnderway DataData graphs

EquipmentUnitsComment
TimeDGPSUTC
LatitudeDGPSDM.mWGS84
LongitudeDGPSDM.mWGS84
HeadingGyrodeg 
SOGDGPSknotsSpeed over ground
COGDGPSdegCourse over ground
DepthEcho soundermeters200 kHz
Missing or incorrect values are displayed as -999
Navigation data collected by the RV Zeeleeuw from 2009-01-29 07:47:35 to 2009-01-29 15:43:16
Time Latitude Longitude Heading SOG COG Depth
2009-01-29 07:48:40 51°13.678 2°55.906 114.4 3.3 297 -999
2009-01-29 07:49:40 51°13.697 2°55.816 100.4 3.8 283 -999
2009-01-29 07:50:40 51°13.707 2°55.758 69.3 1.1 38 -999
2009-01-29 07:51:40 51°13.705 2°55.758 14.5 1.6 199 -999
2009-01-29 07:52:40 51°13.738 2°55.725 328.4 5.4 327 10.3
2009-01-29 07:53:40 51°13.845 2°55.629 333 8.3 333 8.5
2009-01-29 07:54:40 51°13.976 2°55.53 337.7 8.9 334 8.7
2009-01-29 07:55:40 51°14.109 2°55.426 335.6 8.9 332 8.7
2009-01-29 07:56:40 51°14.232 2°55.298 323.5 8.9 319 8.8
2009-01-29 07:57:40 51°14.338 2°55.126 312.5 9.3 310 9
2009-01-29 07:58:40 51°14.44 2°54.931 317.4 9.7 315 9.1
2009-01-29 07:59:40 51°14.574 2°54.777 335.5 10.1 327 8.3
2009-01-29 08:00:40 51°14.716 2°54.617 332 10.8 325 8.4
2009-01-29 08:01:40 51°14.871 2°54.443 329.6 11.8 323 7.8
2009-01-29 08:02:40 51°15.025 2°54.259 328.7 11.6 323 6.6
2009-01-29 08:03:40 51°15.183 2°54.075 331.1 11.9 326 7
2009-01-29 08:04:40 51°15.354 2°53.915 335.6 12.1 329 7.9
2009-01-29 08:05:40 51°15.527 2°53.75 336.3 12.1 330 9.7
2009-01-29 08:06:40 51°15.703 2°53.597 337.8 12.1 329 10.2
2009-01-29 08:07:40 51°15.877 2°53.433 336.8 12.1 329 10.4
2009-01-29 08:08:40 51°16.051 2°53.273 337.6 12.1 332 10.1
2009-01-29 08:09:40 51°16.229 2°53.128 340.6 12 333 10.2
2009-01-29 08:10:40 51°16.408 2°52.984 340.5 12 333 10.3
2009-01-29 08:11:40 51°16.586 2°52.846 340.7 11.9 335 10.2
2009-01-29 08:12:40 51°16.765 2°52.715 340.6 11.7 335 8.2
2009-01-29 08:13:40 51°16.942 2°52.587 340.6 11.8 334 8.3
2009-01-29 08:14:40 51°17.119 2°52.458 340.4 11.7 334 8.2
2009-01-29 08:15:40 51°17.289 2°52.304 330.8 11.9 323 8.9
2009-01-29 08:16:40 51°17.438 2°52.09 322.8 12.1 316 8.9
2009-01-29 08:17:40 51°17.582 2°51.864 319.9 12.1 313 8.8
2009-01-29 08:18:40 51°17.721 2°51.636 320.7 12 315 8.4
2009-01-29 08:19:40 51°17.864 2°51.411 321.8 12.1 316 8.8
2009-01-29 08:20:40 51°18.008 2°51.182 321.3 12.3 315 9.9
2009-01-29 08:21:40 51°18.154 2°50.953 321.8 12.3 315 11.1
2009-01-29 08:22:40 51°18.303 2°50.729 324.6 12.4 319 11.9
2009-01-29 08:23:40 51°18.453 2°50.503 321.2 12.4 314 12.7
2009-01-29 08:24:40 51°18.6 2°50.272 321.1 12.4 314 12.8
2009-01-29 08:25:40 51°18.75 2°50.046 324.4 12.4 318 11.7
2009-01-29 08:26:40 51°18.899 2°49.817 321.1 12.4 315 9.4
2009-01-29 08:27:40 51°19.046 2°49.585 322.3 12.5 316 9.7
2009-01-29 08:28:40 51°19.2 2°49.359 323.7 12.6 317 11.7
2009-01-29 08:29:40 51°19.356 2°49.136 324.6 12.6 317 12.1
2009-01-29 08:30:40 51°19.516 2°48.92 326.9 12.6 320 15.6
2009-01-29 08:31:40 51°19.674 2°48.7 325.4 12.6 319 17.7
2009-01-29 08:32:40 51°19.828 2°48.473 324 12.6 316 20.2
2009-01-29 08:33:40 51°19.978 2°48.242 325 12.5 318 20.8
2009-01-29 08:34:40 51°20.132 2°48.019 326.8 12.4 319 20.9
2009-01-29 08:35:40 51°20.292 2°47.806 329.9 12.6 321 20.1
2009-01-29 08:36:40 51°20.455 2°47.589 328.7 12.7 320 16.9
2009-01-29 08:37:40 51°20.614 2°47.363 325.4 12.9 317 15.3
2009-01-29 08:38:40 51°20.772 2°47.128 326 13 317 18.7
2009-01-29 08:39:40 51°20.95 2°46.956 347.6 12.2 342 20.4
2009-01-29 08:40:40 51°21.148 2°46.886 359 12.1 350 22.2
2009-01-29 08:41:40 51°21.347 2°46.824 358.7 12.2 348 22.9
2009-01-29 08:42:40 51°21.545 2°46.785 3.9 12 355 23.5
2009-01-29 08:43:40 51°21.743 2°46.743 358 12.2 343 23.5
2009-01-29 08:44:40 51°21.919 2°46.57 326.9 12.9 316 22.2
2009-01-29 08:45:40 51°22.061 2°46.311 317.7 12.9 310 19.9
2009-01-29 08:46:40 51°22.199 2°46.05 316.7 12.8 311 19.2
2009-01-29 08:47:40 51°22.341 2°45.796 320.3 12.8 312 20.8
2009-01-29 08:48:40 51°22.483 2°45.549 320.4 12.6 312 22.9
2009-01-29 08:49:40 51°22.62 2°45.292 317.4 12.7 310 23.3
2009-01-29 08:50:40 51°22.757 2°45.033 318.6 12.7 310 24.3
2009-01-29 08:51:40 51°22.899 2°44.781 319.3 12.8 311 25.2
2009-01-29 08:52:40 51°23.042 2°44.53 320.7 12.7 313 23.6
2009-01-29 08:53:40 51°23.185 2°44.283 321.3 12.6 312 25.5
2009-01-29 08:54:40 51°23.327 2°44.035 321.1 12.7 313 25.5
2009-01-29 08:55:40 51°23.465 2°43.779 317.8 12.7 309 22.8
2009-01-29 08:56:40 51°23.601 2°43.52 319.1 12.6 311 25.3
2009-01-29 08:57:40 51°23.739 2°43.266 319.8 12.6 314 26.2
2009-01-29 08:58:40 51°23.881 2°43.017 321.6 12.7 314 25.5
2009-01-29 08:59:40 51°24.022 2°42.771 320.6 12.6 312 20.3
2009-01-29 09:00:40 51°24.164 2°42.524 322 12.6 313 24.7
2009-01-29 09:01:40 51°24.303 2°42.273 320.3 12.6 312 21.7
2009-01-29 09:02:40 51°24.444 2°42.028 320 12.5 310 25.6
2009-01-29 09:03:40 51°24.58 2°41.777 319.4 12.5 311 25
2009-01-29 09:04:40 51°24.717 2°41.529 318.9 12.4 310 24.9
2009-01-29 09:05:40 51°24.847 2°41.27 317.4 12.5 308 24.4
2009-01-29 09:06:40 51°24.974 2°41.007 316.5 12.4 309 25.2
2009-01-29 09:07:40 51°25.101 2°40.741 314.7 12.6 306 25.4
2009-01-29 09:08:40 51°25.226 2°40.474 314.2 12.6 305 24.8
2009-01-29 09:09:40 51°25.351 2°40.208 316.8 12.5 309 26.6
2009-01-29 09:10:40 51°25.482 2°39.951 320.6 12.5 311 28.1
2009-01-29 09:11:40 51°25.627 2°39.716 325.1 12.4 315 29.1
2009-01-29 09:12:40 51°25.776 2°39.493 328 12.2 319 30.3
2009-01-29 09:13:40 51°25.932 2°39.282 329.4 12.2 320 29.7
2009-01-29 09:14:40 51°26.088 2°39.075 330.7 12.3 319 33.2
2009-01-29 09:15:40 51°26.246 2°38.869 330.2 12.2 321 33.7
2009-01-29 09:16:40 51°26.398 2°38.653 327.4 12.3 317 31.2
2009-01-29 09:17:40 51°26.551 2°38.44 326.2 12.2 317 31.5
2009-01-29 09:18:40 51°26.7 2°38.22 327 12.2 319 32.5
2009-01-29 09:19:40 51°26.847 2°37.998 325.5 12.2 316 32.7
2009-01-29 09:20:40 51°26.998 2°37.783 326.7 12.1 318 32.1
2009-01-29 09:21:40 51°27.145 2°37.561 327.9 12.1 320 31.2
2009-01-29 09:22:40 51°27.293 2°37.343 325.8 12.2 317 31.2
2009-01-29 09:23:40 51°27.436 2°37.113 323.7 12.2 315 31.1
2009-01-29 09:24:40 51°27.585 2°36.895 328.2 12.1 319 31.9
2009-01-29 09:25:40 51°27.739 2°36.683 328.5 12.2 319 34
2009-01-29 09:26:40 51°27.888 2°36.46 326.5 12.3 317 34.8
2009-01-29 09:27:40 51°28.039 2°36.236 325.9 12.2 318 29.7
2009-01-29 09:28:40 51°28.194 2°36.026 331.9 12.2 322 27.2
2009-01-29 09:29:40 51°28.354 2°35.825 334.4 11.9 329 28.5
2009-01-29 09:30:40 51°28.536 2°35.76 3.6 11.1 358 30.6
2009-01-29 09:31:40 51°28.722 2°35.762 7.8 11.2 -999 30.9
2009-01-29 09:32:40 51°28.902 2°35.796 18.5 10.9 15 29.5
2009-01-29 09:33:40 51°29.074 2°35.886 23.6 10.8 18 32.1
2009-01-29 09:34:40 51°29.249 2°35.961 18.3 11 9 32.1
2009-01-29 09:35:40 51°29.43 2°36.008 15.3 10.9 9 32.2
2009-01-29 09:36:40 51°29.611 2°36.051 15.2 11.1 9 31.8
2009-01-29 09:37:40 51°29.793 2°36.095 14.2 11.1 8 31.8
2009-01-29 09:38:40 51°29.975 2°36.132 13.1 11 7 32.4
2009-01-29 09:39:40 51°30.155 2°36.185 16.5 11 10 33.7
2009-01-29 09:40:40 51°30.332 2°36.256 21.2 10.9 16 33.3
2009-01-29 09:41:40 51°30.502 2°36.356 26.8 10.9 23 33.8
2009-01-29 09:42:40 51°30.669 2°36.472 27.1 10.9 23 32.6
2009-01-29 09:43:40 51°30.833 2°36.593 28 10.8 24 32.5
2009-01-29 09:44:40 51°31 2°36.713 27.1 11 25 31.9
2009-01-29 09:45:40 51°31.169 2°36.822 24.1 11 19 31.3
2009-01-29 09:46:40 51°31.344 2°36.91 21.9 11 16 30
2009-01-29 09:47:40 51°31.52 2°36.992 20.1 11.1 16 29.6
2009-01-29 09:48:40 51°31.695 2°37.078 21.3 11 20 29.8
2009-01-29 09:49:40 51°31.869 2°37.168 23.5 11 20 30.3
2009-01-29 09:50:40 51°32.004 2°37.238 21.4 5.7 14 31
2009-01-29 09:51:40 51°32.113 2°37.29 22.5 8.8 17 30.9
2009-01-29 09:52:40 51°32.279 2°37.373 21.8 11 16 31.8
2009-01-29 09:53:40 51°32.453 2°37.464 22 11 17 30.6
2009-01-29 09:54:40 51°32.625 2°37.555 20.4 10.9 17 30.7
2009-01-29 09:55:40 51°32.801 2°37.638 21.8 11 17 31.9
2009-01-29 09:56:40 51°32.972 2°37.734 24.1 10.9 20 32
2009-01-29 09:57:40 51°33.146 2°37.825 21.6 11 18 32.9
2009-01-29 09:58:40 51°33.318 2°37.92 24.2 11 20 32.8
2009-01-29 09:59:40 51°33.492 2°38.008 21.3 11 18 33.1
2009-01-29 10:00:40 51°33.668 2°38.097 21.3 11 17 33.8
2009-01-29 10:01:40 51°33.843 2°38.181 21.8 11 18 34
2009-01-29 10:02:40 51°34.016 2°38.276 23 10.9 18 34
2009-01-29 10:03:40 51°34.189 2°38.366 21.3 10.9 16 34.2
2009-01-29 10:04:40 51°34.362 2°38.455 21.3 11.1 16 34.9
2009-01-29 10:05:40 51°34.536 2°38.546 22.2 11 18 34.6
2009-01-29 10:06:40 51°34.71 2°38.635 22.1 11 18 35.4
2009-01-29 10:07:40 51°34.883 2°38.73 21.7 11 18 34.7
2009-01-29 10:08:40 51°35.057 2°38.819 22.7 11 19 35.1
2009-01-29 10:09:40 51°35.232 2°38.906 20.6 11.1 18 34.6
2009-01-29 10:10:40 51°35.407 2°38.999 22.4 11.1 18 35.1
2009-01-29 10:11:40 51°35.581 2°39.092 22.1 11 19 33.4
2009-01-29 10:12:40 51°35.754 2°39.191 22.8 11 19 34
2009-01-29 10:13:40 51°35.929 2°39.282 21.6 11.1 19 33.6
2009-01-29 10:14:40 51°36.104 2°39.377 21.7 11.1 16 33.3
2009-01-29 10:15:40 51°36.28 2°39.467 20.7 11 18 33.2
2009-01-29 10:16:40 51°36.454 2°39.564 23.6 11 20 31.8
2009-01-29 10:17:40 51°36.627 2°39.661 23 11 20 31.8
2009-01-29 10:18:40 51°36.801 2°39.757 22.8 11.1 20 31.6
2009-01-29 10:19:40 51°36.977 2°39.847 22 11.2 15 32.7
2009-01-29 10:20:40 51°37.152 2°39.941 22.2 11.1 16 31.7
2009-01-29 10:21:40 51°37.327 2°40.031 23.8 10.9 19 30.8
2009-01-29 10:22:40 51°37.5 2°40.12 21.4 11 16 30.4
2009-01-29 10:23:40 51°37.675 2°40.204 20.9 11 17 30.6
2009-01-29 10:24:40 51°37.849 2°40.293 23.7 11 18 30.5
2009-01-29 10:25:40 51°38.024 2°40.375 20.6 10.8 15 29.8
2009-01-29 10:26:40 51°38.196 2°40.466 23.5 11 16 29.2
2009-01-29 10:27:40 51°38.367 2°40.563 23.5 11 19 29.2
2009-01-29 10:28:40 51°38.539 2°40.653 24 10.8 18 26.8
2009-01-29 10:29:40 51°38.708 2°40.741 22.6 10.8 18 28.6
2009-01-29 10:30:40 51°38.88 2°40.828 22 10.8 17 30.9
2009-01-29 10:31:40 51°39.053 2°40.909 20.8 10.8 16 29.6
2009-01-29 10:32:40 51°39.225 2°40.993 21.9 10.8 17 32.2
2009-01-29 10:33:40 51°39.398 2°41.074 21.3 10.8 16 30.6
2009-01-29 10:34:40 51°39.571 2°41.151 20.9 10.7 15 28.6
2009-01-29 10:35:40 51°39.741 2°41.233 22.6 10.6 17 29
2009-01-29 10:36:40 51°39.91 2°41.324 24.6 10.8 20 30.9
2009-01-29 10:37:40 51°40.081 2°41.417 23.5 10.9 17 33.4
2009-01-29 10:38:40 51°40.255 2°41.502 21.3 11 16 35.4
2009-01-29 10:39:40 51°40.428 2°41.589 20.2 10.9 17 34.3
2009-01-29 10:40:40 51°40.601 2°41.671 21.7 10.8 19 33.2
2009-01-29 10:41:40 51°40.772 2°41.758 22 10.8 16 31.8
2009-01-29 10:42:40 51°40.943 2°41.845 22.9 10.8 19 34
2009-01-29 10:43:40 51°41.115 2°41.934 21.5 10.8 17 35.6
2009-01-29 10:44:40 51°41.288 2°42.016 21.6 10.8 18 31.4
2009-01-29 10:45:40 51°41.457 2°42.101 22.1 10.7 17 34.9
2009-01-29 10:46:40 51°41.628 2°42.188 21.5 10.9 18 33.9
2009-01-29 10:47:40 51°41.798 2°42.281 24.3 11 19 35.3
2009-01-29 10:48:40 51°41.969 2°42.375 23.2 10.9 16 34.2
2009-01-29 10:49:40 51°42.142 2°42.47 24 11 18 34.6
2009-01-29 10:50:40 51°42.313 2°42.561 20.9 10.8 17 35.3
2009-01-29 10:51:40 51°42.485 2°42.651 23.3 10.8 20 36.3
2009-01-29 10:52:40 51°42.656 2°42.74 21.2 10.8 19 31.4
2009-01-29 10:53:40 51°42.825 2°42.833 22.7 10.9 18 37.4
2009-01-29 10:54:40 51°42.997 2°42.919 21.1 10.9 19 38.4
2009-01-29 10:55:40 51°43.166 2°43.024 25.2 10.9 23 36.2
2009-01-29 10:56:40 51°43.33 2°43.139 26.9 10.8 24 34.1
2009-01-29 10:57:40 51°43.493 2°43.258 27.2 10.7 25 38.1
2009-01-29 10:58:40 51°43.655 2°43.387 30.1 11 28 39
2009-01-29 10:59:40 51°43.79 2°43.577 51.2 10.8 56 38.8
2009-01-29 11:00:40 51°43.837 2°43.854 84.2 11.2 92 37.5
2009-01-29 11:01:40 51°43.767 2°44.137 116.1 11.9 126 34.2
2009-01-29 11:02:40 51°43.636 2°44.387 122.8 12.2 129 35.7
2009-01-29 11:03:40 51°43.506 2°44.639 122.3 12.2 130 34.5
2009-01-29 11:04:40 51°43.375 2°44.889 124.1 12.4 133 33.4
2009-01-29 11:05:40 51°43.236 2°45.133 125.8 12.3 132 39.7
2009-01-29 11:06:40 51°43.104 2°45.384 124 12.4 132 34.1
2009-01-29 11:07:40 51°42.968 2°45.631 124.3 12.2 132 37.7
2009-01-29 11:08:40 51°42.835 2°45.879 123.4 12.3 132 36.8
2009-01-29 11:09:40 51°42.679 2°46.088 147.4 12.7 159 36.5
2009-01-29 11:10:40 51°42.467 2°46.06 196.1 13.5 198 29.1
2009-01-29 11:11:40 51°42.254 2°45.938 197 13.6 200 38.1
2009-01-29 11:12:40 51°42.043 2°45.806 199.6 13.6 201 37.5
2009-01-29 11:13:40 51°41.829 2°45.678 198.4 13.7 199 36
2009-01-29 11:14:40 51°41.616 2°45.551 198 13.8 201 36.5
2009-01-29 11:15:40 51°41.404 2°45.425 200.5 13.5 202 38
2009-01-29 11:16:40 51°41.193 2°45.285 200.8 13.7 202 39.8
2009-01-29 11:17:40 51°40.982 2°45.148 199.2 13.6 201 39.2
2009-01-29 11:18:40 51°40.771 2°45.013 200.6 13.6 202 38.6
2009-01-29 11:19:40 51°40.561 2°44.874 201.8 13.7 202 39.2
2009-01-29 11:20:40 51°40.35 2°44.74 199.7 13.7 203 38.7
2009-01-29 11:21:40 51°40.138 2°44.601 199.4 13.6 200 37.8
2009-01-29 11:22:40 51°39.924 2°44.472 198.7 13.8 200 34.8
2009-01-29 11:23:40 51°39.713 2°44.336 202 13.6 203 36.6
2009-01-29 11:24:40 51°39.503 2°44.194 201.7 13.7 202 35.1
2009-01-29 11:25:40 51°39.292 2°44.063 199 13.6 200 37.4
2009-01-29 11:26:40 51°39.08 2°43.931 199.4 13.6 201 39
2009-01-29 11:27:40 51°38.872 2°43.786 202 13.7 203 35.7
2009-01-29 11:28:40 51°38.661 2°43.648 200.2 13.7 202 37.6
2009-01-29 11:29:40 51°38.448 2°43.517 198.7 13.7 199 35.3
2009-01-29 11:30:40 51°38.235 2°43.387 200.1 13.8 202 37
2009-01-29 11:31:40 51°38.025 2°43.245 201.5 13.7 202 37.8
2009-01-29 11:32:40 51°37.813 2°43.115 198.6 13.6 200 37.5
2009-01-29 11:33:40 51°37.602 2°42.981 201.4 13.7 203 36.9
2009-01-29 11:34:40 51°37.392 2°42.839 200.4 13.7 203 36.1
2009-01-29 11:35:40 51°37.182 2°42.699 201.2 13.6 203 35.1
2009-01-29 11:36:40 51°36.971 2°42.56 200.9 13.6 201 37.9
2009-01-29 11:37:40 51°36.762 2°42.425 200.1 13.5 202 37.9
2009-01-29 11:38:40 51°36.553 2°42.287 201.3 13.6 202 37.8
2009-01-29 11:39:40 51°36.345 2°42.15 199.1 13.6 201 37.3
2009-01-29 11:40:40 51°36.135 2°42.02 200.3 13.5 202 38.8
2009-01-29 11:41:40 51°35.926 2°41.885 200.6 13.5 201 39.2
2009-01-29 11:42:40 51°35.717 2°41.754 198.8 13.5 201 39.4
2009-01-29 11:43:40 51°35.509 2°41.615 199.1 13.5 201 39.8
2009-01-29 11:44:40 51°35.3 2°41.477 199.9 13.6 203 38.9
2009-01-29 11:45:40 51°35.09 2°41.341 198.1 13.6 199 38.2
2009-01-29 11:46:40 51°34.879 2°41.208 199.6 13.6 202 39.1
2009-01-29 11:47:40 51°34.668 2°41.076 197.7 13.6 200 40.3
2009-01-29 11:48:40 51°34.456 2°40.954 196.1 13.5 199 39.8
2009-01-29 11:49:40 51°34.246 2°40.816 200.5 13.6 203 38.6
2009-01-29 11:50:40 51°34.035 2°40.679 199.6 13.7 202 38.8
2009-01-29 11:51:40 51°33.825 2°40.547 200 13.5 202 39.1
2009-01-29 11:52:40 51°33.615 2°40.406 200.4 13.8 203 39.1
2009-01-29 11:53:40 51°33.405 2°40.267 199.7 13.7 202 42.3
2009-01-29 11:54:40 51°33.193 2°40.139 197.7 13.7 200 40.1
2009-01-29 11:55:40 51°32.98 2°40.013 197.5 13.6 200 39.1
2009-01-29 11:56:40 51°32.766 2°39.894 195.1 13.5 199 38.1
2009-01-29 11:57:40 51°32.554 2°39.771 198.4 13.5 199 38
2009-01-29 11:58:40 51°32.344 2°39.649 196.5 13.4 199 38.9
2009-01-29 11:59:40 51°32.132 2°39.56 181.6 12.8 179 38.4
2009-01-29 12:00:40 51°31.97 2°39.734 119.5 11.7 118 38.2
2009-01-29 12:01:40 51°31.951 2°40.04 86.2 11.9 91 37.1
2009-01-29 12:02:40 51°31.96 2°40.353 79.8 11.6 81 38.4
2009-01-29 12:03:40 51°31.988 2°40.664 78.8 11.9 81 37
2009-01-29 12:04:40 51°32.019 2°40.978 79 11.9 83 37.5
2009-01-29 12:05:40 51°32.05 2°41.292 78.6 11.9 82 38
2009-01-29 12:06:40 51°32.082 2°41.603 73.8 11.9 75 36.8
2009-01-29 12:07:40 51°32.171 2°41.873 51.5 11.4 49 35.1
2009-01-29 12:08:40 51°32.335 2°42.034 27.7 11.6 24 35
2009-01-29 12:09:40 51°32.51 2°42.168 27.5 11.7 27 35.1
2009-01-29 12:10:40 51°32.682 2°42.307 27.1 11.6 27 35.2
2009-01-29 12:11:40 51°32.854 2°42.449 28.6 11.7 29 34.9
2009-01-29 12:12:40 51°33.028 2°42.587 26.4 11.7 24 33
2009-01-29 12:13:40 51°33.208 2°42.706 22.5 11.7 22 33.4
2009-01-29 12:14:40 51°33.39 2°42.821 21.3 11.7 20 34.6
2009-01-29 12:15:40 51°33.573 2°42.932 21.2 11.7 19 36.1
2009-01-29 12:16:40 51°33.756 2°43.043 21.5 11.7 20 33.7
2009-01-29 12:17:40 51°33.938 2°43.157 21.9 11.8 21 35.8
2009-01-29 12:18:40 51°34.12 2°43.273 23.2 11.9 22 37.8
2009-01-29 12:19:40 51°34.303 2°43.392 23.7 11.9 21 36.6
2009-01-29 12:20:40 51°34.486 2°43.506 22.9 11.9 23 38.4
2009-01-29 12:21:40 51°34.672 2°43.619 20.6 11.9 22 39.3
2009-01-29 12:22:40 51°34.856 2°43.74 24.5 12 24 38.5
2009-01-29 12:23:40 51°35.04 2°43.863 24.8 12 22 37.7
2009-01-29 12:24:41 51°35.227 2°43.984 23 12 24 37.5
2009-01-29 12:25:40 51°35.41 2°44.107 23.7 12.1 24 37.6
2009-01-29 12:26:41 51°35.599 2°44.225 22 11.9 19 38.1
2009-01-29 12:27:40 51°35.781 2°44.341 23.6 12 23 37.5
2009-01-29 12:28:40 51°35.968 2°44.456 21.2 12.1 24 37.8
2009-01-29 12:29:40 51°36.154 2°44.572 20.8 12 20 37.9
2009-01-29 12:30:40 51°36.34 2°44.691 24.2 12.1 21 39.4
2009-01-29 12:31:40 51°36.524 2°44.814 22.9 12 23 39.6
2009-01-29 12:32:40 51°36.71 2°44.927 22.2 11.9 23 37.5
2009-01-29 12:33:40 51°36.895 2°45.051 23 12 21 37.4
2009-01-29 12:34:40 51°37.082 2°45.165 20.4 12 19 36.9
2009-01-29 12:35:40 51°37.268 2°45.283 23.6 12 24 36.4
2009-01-29 12:36:40 51°37.453 2°45.405 22 12.1 22 34
2009-01-29 12:37:40 51°37.638 2°45.526 21.1 11.9 19 36.4
2009-01-29 12:38:40 51°37.826 2°45.642 21 12.2 21 36
2009-01-29 12:39:40 51°38.014 2°45.765 24.2 12.1 22 35
2009-01-29 12:40:40 51°38.2 2°45.886 23.5 12.1 23 34.4
2009-01-29 12:41:40 51°38.387 2°46.006 21.3 12.1 20 33.8
2009-01-29 12:42:41 51°38.576 2°46.129 22.8 12.1 22 34.3
2009-01-29 12:43:40 51°38.76 2°46.251 22.4 12.1 22 33.1
2009-01-29 12:44:40 51°38.947 2°46.372 23.3 12.2 21 34.5
2009-01-29 12:45:40 51°39.137 2°46.487 22 12.1 23 33.8
2009-01-29 12:46:40 51°39.324 2°46.609 22.8 12.3 23 34.4
2009-01-29 12:47:40 51°39.513 2°46.732 22.7 12.4 21 34.2
2009-01-29 12:48:40 51°39.703 2°46.856 23.5 12.3 24 30.3
2009-01-29 12:49:40 51°39.893 2°46.979 22.2 12.4 21 33.2
2009-01-29 12:50:40 51°40.084 2°47.099 23 12.3 24 28.7
2009-01-29 12:51:40 51°40.276 2°47.218 21 12.3 21 33.9
2009-01-29 12:52:40 51°40.467 2°47.34 20.5 12.4 19 31.7
2009-01-29 12:53:40 51°40.66 2°47.452 21 12.3 21 28.3
2009-01-29 12:54:40 51°40.852 2°47.573 23 12.5 23 30.9
2009-01-29 12:55:40 51°41.043 2°47.695 21.1 12.4 20 30.3
2009-01-29 12:56:40 51°41.236 2°47.815 21.8 12.3 22 30.2
2009-01-29 12:57:40 51°41.427 2°47.942 22.8 12.5 22 30.8
2009-01-29 12:58:41 51°41.623 2°48.061 19.7 12.3 20 30.2
2009-01-29 12:59:40 51°41.809 2°48.187 24.7 12.4 32 32.4
2009-01-29 13:00:41 51°41.877 2°48.477 93.9 12.2 101 25.8
2009-01-29 13:01:40 51°41.748 2°48.718 138.7 12.6 138 28.6
2009-01-29 13:02:40 51°41.591 2°48.95 141.5 12.8 141 26.7
2009-01-29 13:03:41 51°41.419 2°49.162 146.6 12.7 144 26.2
2009-01-29 13:04:40 51°41.25 2°49.364 146.4 12.8 146 30.1
2009-01-29 13:05:41 51°41.057 2°49.496 170.2 12.3 171 32.6
2009-01-29 13:06:40 51°40.863 2°49.453 200.9 12.2 200 33.4
2009-01-29 13:07:40 51°40.674 2°49.332 204.6 12.4 202 32.1
2009-01-29 13:08:40 51°40.484 2°49.22 202 12.2 199 29.2
2009-01-29 13:09:40 51°40.29 2°49.126 198.6 12.2 197 32
2009-01-29 13:10:40 51°40.1 2°49.019 202.8 12 201 31.5
2009-01-29 13:11:40 51°39.908 2°48.921 199 12.1 197 30.4
2009-01-29 13:12:40 51°39.717 2°48.827 201.2 12 199 31.1
2009-01-29 13:13:40 51°39.525 2°48.736 198.9 12 196 31.2
2009-01-29 13:14:41 51°39.331 2°48.644 198.8 11.9 195 24.8
2009-01-29 13:15:40 51°39.144 2°48.559 199.8 11.8 195 28.2
2009-01-29 13:16:40 51°38.956 2°48.468 202.8 11.7 198 26.8
2009-01-29 13:17:40 51°38.769 2°48.372 203 11.6 199 23.3
2009-01-29 13:18:40 51°38.582 2°48.277 200.1 11.8 195 25
2009-01-29 13:19:41 51°38.393 2°48.186 202.7 11.7 198 26
2009-01-29 13:20:40 51°38.21 2°48.093 201.6 11.6 197 26
2009-01-29 13:21:41 51°38.021 2°48.002 201 11.7 195 22.5
2009-01-29 13:22:40 51°37.838 2°47.914 203.2 11.5 200 26.5
2009-01-29 13:23:41 51°37.652 2°47.814 204.4 11.4 199 23.4
2009-01-29 13:24:40 51°37.476 2°47.717 203.4 11.3 199 25.9
2009-01-29 13:25:40 51°37.296 2°47.62 203.2 11.4 199 29.8
2009-01-29 13:26:40 51°37.116 2°47.518 204 11.4 199 29.2
2009-01-29 13:27:40 51°36.937 2°47.418 203.7 11.4 199 28.2
2009-01-29 13:28:41 51°36.757 2°47.315 203.6 11.2 200 28.5
2009-01-29 13:29:40 51°36.579 2°47.216 203.2 11.5 200 26.5
2009-01-29 13:30:41 51°36.395 2°47.112 202.6 11.5 198 30
2009-01-29 13:31:40 51°36.216 2°47.011 203.8 11.5 199 32.6
2009-01-29 13:32:41 51°36.032 2°46.909 203.5 11.6 199 33.4
2009-01-29 13:33:40 51°35.855 2°46.809 203.3 11.5 198 32.6
2009-01-29 13:34:40 51°35.673 2°46.71 202.1 11.5 200 33.9
2009-01-29 13:35:41 51°35.491 2°46.603 203.7 11.4 200 33.4
2009-01-29 13:36:40 51°35.315 2°46.498 203.1 11.4 201 33.4
2009-01-29 13:37:41 51°35.135 2°46.39 203.3 11.4 201 34.6
2009-01-29 13:38:40 51°34.96 2°46.287 202.4 11.4 200 34.2
2009-01-29 13:39:41 51°34.779 2°46.178 203.4 11.4 202 35
2009-01-29 13:40:40 51°34.604 2°46.075 202.4 11.5 198 34.9
2009-01-29 13:41:41 51°34.423 2°45.97 203.4 11.4 201 34.3
2009-01-29 13:42:40 51°34.246 2°45.873 201.3 11.3 198 34
2009-01-29 13:43:40 51°34.068 2°45.773 202.6 11.3 199 34.2
2009-01-29 13:44:41 51°33.891 2°45.657 204.9 11.3 202 32.6
2009-01-29 13:45:40 51°33.72 2°45.546 204.2 11.3 202 33.7
2009-01-29 13:46:41 51°33.542 2°45.435 203.5 11.3 199 32.5
2009-01-29 13:47:40 51°33.369 2°45.333 202.8 11.3 199 32.7
2009-01-29 13:48:41 51°33.191 2°45.228 202.8 11.2 200 31.6
2009-01-29 13:49:40 51°33.017 2°45.138 199.9 11.2 198 33.8
2009-01-29 13:50:41 51°32.838 2°45.039 203.5 11.1 201 32.1
2009-01-29 13:51:40 51°32.668 2°44.938 201.9 11.1 199 33.4
2009-01-29 13:52:40 51°32.494 2°44.835 203.1 11.1 200 35.3
2009-01-29 13:53:41 51°32.317 2°44.739 200.9 11.1 197 36.4
2009-01-29 13:54:40 51°32.146 2°44.647 200.4 11 198 38.4
2009-01-29 13:55:41 51°31.97 2°44.547 203.2 11 199 38.5
2009-01-29 13:56:40 51°31.797 2°44.466 199.8 11 195 37.4
2009-01-29 13:57:41 51°31.618 2°44.383 201.3 11 199 37.4
2009-01-29 13:58:40 51°31.446 2°44.298 198.6 11 196 35.5
2009-01-29 13:59:41 51°31.266 2°44.219 199.1 11.1 195 38.2
2009-01-29 14:00:41 51°31.091 2°44.132 202.2 10.9 199 34.3
2009-01-29 14:01:40 51°30.92 2°44.045 198.7 11 196 38.2
2009-01-29 14:02:41 51°30.741 2°43.964 199.2 10.9 195 34.7
2009-01-29 14:03:40 51°30.57 2°43.883 201.1 10.9 199 35.9
2009-01-29 14:04:41 51°30.394 2°43.788 202.4 10.9 199 34.7
2009-01-29 14:05:41 51°30.221 2°43.7 201.1 11 196 35.6
2009-01-29 14:06:41 51°30.046 2°43.624 198.4 10.9 195 34.2
2009-01-29 14:07:40 51°29.868 2°43.59 183.3 11.3 176 33.2
2009-01-29 14:08:41 51°29.683 2°43.688 160 12 150 34
2009-01-29 14:09:41 51°29.51 2°43.846 159.6 11.8 154 33.8
2009-01-29 14:10:41 51°29.326 2°43.951 169.9 11.6 165 32.2
2009-01-29 14:11:41 51°29.14 2°44.037 170.8 11.6 165 30.4
2009-01-29 14:12:40 51°28.955 2°44.116 170.5 11.6 165 30.8
2009-01-29 14:13:41 51°28.765 2°44.2 171.1 11.7 162 31.7
2009-01-29 14:14:41 51°28.58 2°44.308 165.2 11.8 158 32.9
2009-01-29 14:15:41 51°28.399 2°44.437 163.5 11.9 157 33.4
2009-01-29 14:16:41 51°28.216 2°44.56 164.2 11.9 157 30.2
2009-01-29 14:17:41 51°28.033 2°44.686 163.9 12 157 31.7
2009-01-29 14:18:41 51°27.849 2°44.808 165 12 157 30.9
2009-01-29 14:19:41 51°27.665 2°44.931 164.7 12.1 156 30.1
2009-01-29 14:20:41 51°27.483 2°45.062 161 12 156 28.1
2009-01-29 14:21:41 51°27.301 2°45.19 163.4 12 157 31
2009-01-29 14:22:41 51°27.116 2°45.302 167.2 12 158 30.4
2009-01-29 14:23:40 51°26.938 2°45.432 161.7 12 156 30.8
2009-01-29 14:24:41 51°26.75 2°45.556 164.4 11.9 158 31.7
2009-01-29 14:25:41 51°26.57 2°45.687 161.9 11.9 155 31.5
2009-01-29 14:26:41 51°26.39 2°45.824 160.2 11.9 155 29.4
2009-01-29 14:27:41 51°26.211 2°45.961 161.2 11.9 154 28.7
2009-01-29 14:28:40 51°26.034 2°46.091 161.8 11.8 155 29.1
2009-01-29 14:29:41 51°25.853 2°46.23 161 11.9 155 26.6
2009-01-29 14:30:41 51°25.676 2°46.366 161.4 11.9 154 27
2009-01-29 14:31:41 51°25.496 2°46.502 161.4 11.9 155 26
2009-01-29 14:32:40 51°25.32 2°46.635 161.2 12 155 27.8
2009-01-29 14:33:41 51°25.138 2°46.776 161.7 12 155 27.6
2009-01-29 14:34:41 51°24.961 2°46.919 158.5 12 151 27.7
2009-01-29 14:35:41 51°24.786 2°47.068 160.6 11.9 153 31.6
2009-01-29 14:36:41 51°24.605 2°47.19 165.9 11.7 159 33.8
2009-01-29 14:37:41 51°24.423 2°47.309 164.5 11.7 158 32
2009-01-29 14:38:41 51°24.243 2°47.428 164.9 11.7 156 28.4
2009-01-29 14:39:40 51°24.066 2°47.546 166.4 11.7 159 26.6
2009-01-29 14:40:41 51°23.882 2°47.669 164.3 11.8 158 21.8
2009-01-29 14:41:41 51°23.701 2°47.796 162.4 11.9 156 24.7
2009-01-29 14:42:41 51°23.52 2°47.925 161.1 12 154 19.6
2009-01-29 14:43:41 51°23.34 2°48.063 160.8 12 154 22.1
2009-01-29 14:44:41 51°23.159 2°48.196 162.8 12 157 24.1
2009-01-29 14:45:41 51°22.979 2°48.326 161.3 11.9 155 22.5
2009-01-29 14:46:41 51°22.804 2°48.464 161.9 11.8 154 22.4
2009-01-29 14:47:41 51°22.63 2°48.609 160.6 11.7 151 17.8
2009-01-29 14:48:41 51°22.454 2°48.744 164.7 11.7 156 23.5
2009-01-29 14:49:41 51°22.274 2°48.864 165.3 11.8 156 25.2
2009-01-29 14:50:41 51°22.094 2°48.99 165 11.9 157 26.4
2009-01-29 14:51:41 51°21.913 2°49.114 163.9 12 156 26.2
2009-01-29 14:52:41 51°21.731 2°49.237 164.7 11.8 159 25.9
2009-01-29 14:53:41 51°21.546 2°49.348 164.6 11.9 159 25
2009-01-29 14:54:41 51°21.364 2°49.479 160.8 12 153 24.8
2009-01-29 14:55:41 51°21.185 2°49.619 160.9 12 154 25.3
2009-01-29 14:56:41 51°21.008 2°49.755 161.7 11.7 155 25.9
2009-01-29 14:57:41 51°20.832 2°49.885 161.4 11.7 154 25.8
2009-01-29 14:58:41 51°20.658 2°50.017 162.6 11.6 154 25.3
2009-01-29 14:59:41 51°20.479 2°50.135 164.2 11.8 159 23.2
2009-01-29 15:00:41 51°20.296 2°50.254 163.5 11.8 157 20.5
2009-01-29 15:01:41 51°20.114 2°50.375 164 11.9 157 18.6
2009-01-29 15:02:41 51°19.934 2°50.5 163.2 11.8 157 17.1
2009-01-29 15:03:41 51°19.752 2°50.62 163.4 11.8 157 14.9
2009-01-29 15:04:41 51°19.572 2°50.746 160.7 11.9 157 15
2009-01-29 15:05:41 51°19.388 2°50.863 162.8 11.9 158 16.9
2009-01-29 15:06:41 51°19.207 2°50.987 162.1 11.8 158 17.6
2009-01-29 15:07:41 51°19.025 2°51.102 163 11.7 156 17.7
2009-01-29 15:08:41 51°18.845 2°51.217 162.7 11.6 159 17.3
2009-01-29 15:09:41 51°18.665 2°51.329 162.1 11.6 158 16.8
2009-01-29 15:10:41 51°18.486 2°51.447 162 11.7 157 15.9
2009-01-29 15:11:41 51°18.307 2°51.57 160.9 11.6 157 14.9
2009-01-29 15:12:41 51°18.132 2°51.7 158.7 11.6 153 13.8
2009-01-29 15:13:41 51°17.957 2°51.83 160.3 11.5 157 13.2
2009-01-29 15:14:41 51°17.779 2°51.945 162.7 11.6 159 13
2009-01-29 15:15:41 51°17.603 2°52.064 162.2 11.6 156 13.1
2009-01-29 15:16:41 51°17.427 2°52.188 159 11.6 154 13.2
2009-01-29 15:17:41 51°17.253 2°52.323 159 11.6 154 13.1
2009-01-29 15:18:41 51°17.082 2°52.465 156 11.7 150 12.5
2009-01-29 15:19:41 51°16.91 2°52.613 156.1 11.7 152 12.5
2009-01-29 15:20:41 51°16.737 2°52.749 160.7 11.5 157 12.6
2009-01-29 15:21:41 51°16.558 2°52.867 161.5 11.6 157 14.3
2009-01-29 15:22:41 51°16.383 2°53.002 159.8 11.8 152 14.6
2009-01-29 15:23:41 51°16.217 2°53.17 152.7 11.8 146 14.5
2009-01-29 15:24:41 51°16.054 2°53.348 150.7 12 145 14.3
2009-01-29 15:25:41 51°15.878 2°53.481 164.7 11.6 162 14.1
2009-01-29 15:26:41 51°15.693 2°53.565 170.2 11.5 165 14.4
2009-01-29 15:27:41 51°15.507 2°53.652 167.7 11.6 164 12.9
2009-01-29 15:28:41 51°15.323 2°53.74 167.2 11.5 162 12.5
2009-01-29 15:29:41 51°15.138 2°53.826 164.9 11.6 159 12.1
2009-01-29 15:30:41 51°14.964 2°53.971 151.5 12 148 12.2
2009-01-29 15:31:41 51°14.814 2°54.181 139.2 12.1 133 12.3
2009-01-29 15:32:41 51°14.682 2°54.428 137.5 12.3 132 12.9
2009-01-29 15:33:41 51°14.547 2°54.676 135.1 12.4 131 12.8
2009-01-29 15:34:41 51°14.422 2°54.939 129.9 12.5 126 13.3
2009-01-29 15:35:41 51°14.297 2°55.186 129.6 10.7 130 12.8
2009-01-29 15:36:41 51°14.181 2°55.364 142.5 9.3 145 12.7
2009-01-29 15:37:41 51°14.055 2°55.464 155.2 7.6 156 12.6
2009-01-29 15:38:41 51°13.931 2°55.553 155.1 8.5 155 12.5
2009-01-29 15:39:41 51°13.81 2°55.647 147.6 7.8 150 12.4
2009-01-29 15:40:41 51°13.726 2°55.769 129.1 6 131 -999
2009-01-29 15:41:41 51°13.676 2°55.884 112.3 4.5 116 -999
2009-01-29 15:42:41 51°13.662 2°55.955 112.7 1.3 111 -999